Airport View

Enter AWOS ICAO identifier for current METAR.

ex. KFNL

KRCM 191915Z AUTO 24009G14KT 10SM SCT022 SCT032 OVC050 25/17 A2970 RMK AO2

19 Jun 2019 18:46

Frequency: 119.575

Phone: 660-422-7010

Other Area AWOS: KSZL - KGLY - KLRY - KLXT

TAF KSZL 191100Z 1911/2017 VRB06KT 9999 NSW BKN050 BKN100 QNH2960INS BECMG 1918/1919 30009KT 9999 BKN030 BKN100 QNH2960INS BECMG 2011/2012 VRB06KT 4000 BR OVC010 QNH2969INS BECMG 2014/2015 21009KT 9999 NSW SCT010 QNH2970INS TX25/1920Z TN18/1911Z